Weather at Munich Airport

Public forecast

Using degrees Celsius for public forecast. Weather courtesy of forecast.io.

Current aviation weather report (METAR) for Munich Airport

Retrieved 2020/10/27 00:20 UTC (11 minutes ago):

EDDM 270020Z 20007KT 9999 -RA FEW018 SCT030 OVC045 04/03 Q1011 NOSIG

Aviation forecast (TAF) for Munich Airport

Retrieved 2020-10-27 00:30 UTC (58 seconds ago):

TAF EDDM 262300Z 2700/2806 23006KT 9999 FEW008 BKN035 TEMPO 2700/2704 RA BECMG 2716/2718 15004KT TEMPO 2722/2804 2500 BCFG